Time;durP1;ratioP1;P1;durP2;ratioP2;P2;SDS_P1;SDS_P2;PMS_P1;PMS_P2;Temp;Humidity;BMP_temperature;BMP_pressure;BME280_temperature;BME280_humidity;BME280_pressure;Samples;Min_cycle;Max_cycle;Signal;HPM_P1;HPM_P2
2022/12/09 00:01:19;;;;;;;1.38;1.27;;;12.80;63.00;;;;;;5052471;28;20027;-78
2022/12/09 00:03:45;;;;;;;2.15;1.30;;;12.80;78.30;;;;;;5051044;28;20021;-79
2022/12/09 00:06:13;;;;;;;1.33;1.23;;;12.80;63.10;;;;;;5051157;28;20031;-79
2022/12/09 00:08:39;;;;;;;1.58;1.33;;;12.80;63.00;;;;;;5052684;28;20441;-79
2022/12/09 00:11:06;;;;;;;1.45;1.20;;;12.70;63.00;;;;;;5052439;28;20028;-78
2022/12/09 00:13:31;;;;;;;1.17;1.13;;;12.70;63.10;;;;;;5051077;28;20025;-79
2022/12/09 00:15:57;;;;;;;1.45;1.10;;;12.70;63.10;;;;;;5050973;28;20028;-79
2022/12/09 00:18:23;;;;;;;1.92;1.15;;;12.70;63.10;;;;;;5052210;28;20037;-79
2022/12/09 00:20:48;;;;;;;1.10;1.00;;;12.70;78.70;;;;;;5052162;28;20037;-78
2022/12/09 00:23:14;;;;;;;1.55;1.02;;;12.70;63.10;;;;;;5050890;28;20071;-79
2022/12/09 00:25:39;;;;;;;1.70;1.48;;;12.70;63.10;;;;;;5050698;28;20495;-78
2022/12/09 00:28:05;;;;;;;1.20;1.10;;;12.70;63.10;;;;;;5051005;28;20033;-79
2022/12/09 00:30:31;;;;;;;1.30;1.10;;;12.70;63.10;;;;;;5052153;28;20033;-79
2022/12/09 00:32:57;;;;;;;1.20;1.10;;;12.70;63.10;;;;;;5052073;28;20403;-79
2022/12/09 00:35:22;;;;;;;1.08;1.00;;;12.70;63.10;;;;;;5050770;28;20510;-79
2022/12/09 00:37:48;;;;;;;1.35;1.25;;;12.60;78.00;;;;;;5050671;28;20040;-79
2022/12/09 00:40:14;;;;;;;2.22;1.20;;;12.70;63.00;;;;;;5051959;28;20033;-79
2022/12/09 00:42:39;;;;;;;0.90;0.90;;;12.70;63.10;;;;;;5052028;28;20403;-79
2022/12/09 00:45:06;;;;;;;1.40;1.30;;;12.70;63.00;;;;;;5051958;28;20037;-79
2022/12/09 00:47:33;;;;;;;1.23;1.10;;;12.70;63.10;;;;;;5051932;28;20096;-78
2022/12/09 00:49:58;;;;;;;1.40;1.15;;;12.70;63.00;;;;;;5050826;28;20119;-80
2022/12/09 00:52:24;;;;;;;0.93;0.90;;;12.70;63.80;;;;;;5054554;28;20446;-79
2022/12/09 00:54:50;;;;;;;1.52;0.88;;;12.70;63.10;;;;;;5055923;28;20040;-79
2022/12/09 00:57:15;;;;;;;1.20;1.10;;;12.70;63.80;;;;;;5054657;28;20045;-79
2022/12/09 00:59:41;;;;;;;0.80;0.80;;;12.70;63.10;;;;;;5054577;28;20037;-79
2022/12/09 01:02:06;;;;;;;1.58;1.13;;;12.70;63.10;;;;;;5054590;28;20052;-79
2022/12/09 01:04:32;;;;;;;1.25;1.15;;;12.70;63.10;;;;;;5054663;28;20061;-76
2022/12/09 01:06:57;;;;;;;1.58;0.82;;;12.70;63.10;;;;;;5054490;28;20025;-76
2022/12/09 01:09:23;;;;;;;1.60;0.90;;;12.70;63.10;;;;;;5054389;28;20021;-76
2022/12/09 01:11:49;;;;;;;0.80;0.77;;;12.70;63.10;;;;;;5055587;28;20089;-76
2022/12/09 01:14:14;;;;;;;1.02;1.00;;;12.60;63.00;;;;;;5055820;28;20028;-76
2022/12/09 01:16:40;;;;;;;1.20;1.10;;;12.70;63.10;;;;;;5055574;28;20154;-76
2022/12/09 01:19:08;;;;;;;1.38;0.98;;;12.70;63.10;;;;;;5055450;28;20547;-76
2022/12/09 01:21:34;;;;;;;1.08;0.98;;;12.60;63.10;;;;;;5055476;28;20058;-76
2022/12/09 01:24:00;;;;;;;0.90;0.90;;;12.60;63.10;;;;;;5054132;28;20036;-76
2022/12/09 01:26:26;;;;;;;0.80;0.80;;;12.60;63.10;;;;;;5053898;28;20392;-76
2022/12/09 01:28:53;;;;;;;0.80;0.80;;;12.60;63.10;;;;;;5054021;28;20112;-76
2022/12/09 01:31:22;;;;;;;1.10;1.02;;;12.60;63.10;;;;;;5054022;28;20017;-76
2022/12/09 01:33:48;;;;;;;1.20;1.00;;;12.60;63.10;;;;;;5053926;28;20034;-76
2022/12/09 01:36:18;;;;;;;1.05;1.02;;;12.60;63.10;;;;;;5055120;28;20021;-76
2022/12/09 01:38:46;;;;;;;1.10;1.00;;;12.60;63.20;;;;;;5053868;28;20053;-76
2022/12/09 01:41:13;;;;;;;1.35;1.25;;;12.60;63.10;;;;;;5053897;28;20083;-76
2022/12/09 01:43:39;;;;;;;1.13;1.02;;;12.60;63.10;;;;;;5053809;28;20048;-76
2022/12/09 01:46:05;;;;;;;1.25;1.08;;;12.60;63.10;;;;;;5053762;28;20017;-76
2022/12/09 01:48:40;;;;;;;1.33;1.23;;;12.60;63.10;;;;;;5055047;28;20029;-76
2022/12/09 01:51:15;;;;;;;1.20;1.10;;;12.60;63.10;;;;;;5054926;28;20025;-76
2022/12/09 01:53:44;;;;;;;1.30;1.08;;;12.60;63.10;;;;;;5054753;28;20013;-76
2022/12/09 01:56:16;;;;;;;1.38;1.08;;;12.60;63.10;;;;;;5054774;28;20036;-76
2022/12/09 01:58:43;;;;;;;0.98;0.93;;;12.60;63.10;;;;;;5054814;28;20100;-76
2022/12/09 02:01:08;;;;;;;1.85;1.00;;;12.60;63.10;;;;;;5054731;28;20452;-76
2022/12/09 02:03:34;;;;;;;1.05;1.05;;;12.60;63.10;;;;;;5053808;28;20060;-76
2022/12/09 02:05:59;;;;;;;1.40;1.00;;;12.60;63.10;;;;;;5054697;28;20483;-76
2022/12/09 02:08:25;;;;;;;0.95;0.95;;;12.60;63.20;;;;;;5054530;28;20082;-76
2022/12/09 02:11:28;;;;;;;1.38;1.00;;;12.60;63.10;;;;;;5054595;28;20025;-76
2022/12/09 02:14:13;;;;;;;1.35;1.00;;;12.60;63.10;;;;;;5054479;28;20396;-76
2022/12/09 02:16:54;;;;;;;1.00;0.90;;;12.60;63.10;;;;;;5054512;28;20025;-79
2022/12/09 02:19:33;;;;;;;1.20;1.10;;;12.50;63.10;;;;;;5054353;28;20057;-79
2022/12/09 02:21:59;;;;;;;2.78;1.02;;;12.50;63.10;;;;;;5054510;28;20372;-79
2022/12/09 02:24:42;;;;;;;0.93;0.93;;;12.50;63.00;;;;;;5054308;28;20143;-79
2022/12/09 02:27:17;;;;;;;1.13;1.00;;;12.50;63.00;;;;;;5054205;28;20134;-79
2022/12/09 02:30:03;;;;;;;1.00;0.90;;;12.60;63.00;;;;;;5054193;28;20021;-79
2022/12/09 02:33:01;;;;;;;1.00;0.85;;;12.60;63.10;;;;;;5054137;28;20036;-79
2022/12/09 02:35:36;;;;;;;1.92;1.10;;;12.50;63.00;;;;;;5042016;28;20488;-76
2022/12/09 02:38:10;;;;;;;1.20;1.10;;;12.50;63.00;;;;;;5054165;28;20056;-76
2022/12/09 02:40:44;;;;;;;1.30;1.20;;;12.50;63.10;;;;;;5053891;28;20458;-76
2022/12/09 02:43:11;;;;;;;0.82;0.82;;;12.50;63.10;;;;;;5054072;28;20048;-76
2022/12/09 02:45:38;;;;;;;0.70;0.70;;;12.50;63.00;;;;;;5053908;28;20033;-76
2022/12/09 02:48:05;;;;;;;1.40;1.30;;;12.60;63.10;;;;;;5053806;28;20102;-77
2022/12/09 02:50:35;;;;;;;1.30;1.20;;;12.50;63.00;;;;;;5053794;28;20361;-77
2022/12/09 02:53:06;;;;;;;1.33;1.20;;;12.60;63.10;;;;;;5053723;28;20111;-79
2022/12/09 02:55:33;;;;;;;0.90;0.80;;;12.50;63.00;;;;;;5053768;28;20029;-76
2022/12/09 02:58:00;;;;;;;1.13;0.90;;;12.50;63.00;;;;;;5053764;28;20104;-76
2022/12/09 03:00:26;;;;;;;2.15;1.45;;;12.50;63.00;;;;;;5053482;28;20175;-76
2022/12/09 03:02:56;;;;;;;1.20;1.05;;;12.50;63.10;;;;;;5053630;28;20583;-76
2022/12/09 03:05:27;;;;;;;1.52;1.20;;;12.50;78.90;;;;;;5053573;28;20033;-76
2022/12/09 03:07:59;;;;;;;1.00;1.00;;;12.50;63.70;;;;;;5052216;28;20021;-76
2022/12/09 03:10:38;;;;;;;1.33;1.23;;;12.40;63.00;;;;;;5053452;28;20029;-77
2022/12/09 03:13:18;;;;;;;0.98;0.93;;;12.50;63.10;;;;;;5053441;28;20021;-79
2022/12/09 03:15:48;;;;;;;1.50;1.10;;;12.40;63.10;;;;;;5052118;28;20056;-80
2022/12/09 03:18:15;;;;;;;;;;;12.40;63.10;;;;;;5052485;28;20163;-79
2022/12/09 03:20:43;;;;;;;1.17;0.93;;;12.40;63.10;;;;;;5051839;28;19917;-80
2022/12/09 03:23:13;;;;;;;0.80;0.80;;;12.40;62.50;;;;;;5053192;28;20137;-79
2022/12/09 03:25:43;;;;;;;1.13;0.98;;;12.40;63.10;;;;;;5052952;28;20027;-79
2022/12/09 03:28:15;;;;;;;0.85;0.80;;;12.40;63.10;;;;;;5053151;28;20102;-79
2022/12/09 03:30:43;;;;;;;1.20;0.80;;;12.40;63.80;;;;;;5052988;28;20064;-76
2022/12/09 03:33:11;;;;;;;1.38;1.02;;;12.40;63.10;;;;;;5053033;28;20404;-76
2022/12/09 03:35:48;;;;;;;1.15;1.02;;;12.40;63.70;;;;;;5052889;28;20029;-76
2022/12/09 03:38:17;;;;;;;1.30;1.20;;;12.40;63.00;;;;;;5053228;28;20430;-76
2022/12/09 03:40:45;;;;;;;1.08;0.90;;;12.40;63.10;;;;;;5051334;28;20537;-76
2022/12/09 03:43:28;;;;;;;0.98;0.88;;;12.50;63.10;;;;;;5051526;28;20025;-76
2022/12/09 03:45:55;;;;;;;1.10;0.82;;;12.40;63.10;;;;;;5052766;28;20025;-76
2022/12/09 03:48:22;;;;;;;0.90;0.90;;;12.40;63.00;;;;;;5051450;28;20056;-79
2022/12/09 03:51:02;;;;;;;1.55;1.10;;;12.40;63.00;;;;;;5052628;28;20020;-76
2022/12/09 03:53:40;;;;;;;0.80;0.80;;;12.40;63.00;;;;;;5052537;28;20037;-77
2022/12/09 03:56:15;;;;;;;1.08;0.90;;;12.40;63.00;;;;;;5051297;28;20033;-76
2022/12/09 03:58:43;;;;;;;1.10;0.98;;;12.40;63.00;;;;;;5051136;28;20505;-76
2022/12/09 04:01:09;;;;;;;1.33;1.10;;;12.40;63.10;;;;;;5051232;28;20116;-76
2022/12/09 04:03:36;;;;;;;1.48;1.10;;;12.40;63.10;;;;;;5051150;28;20029;-76
2022/12/09 04:06:02;;;;;;;1.52;1.17;;;12.40;63.00;;;;;;5051237;28;20029;-76
2022/12/09 04:08:27;;;;;;;2.08;1.10;;;12.30;63.00;;;;;;5052773;28;20028;-80
2022/12/09 04:10:53;;;;;;;1.05;0.95;;;12.30;63.00;;;;;;5051060;28;20033;-79
2022/12/09 04:13:18;;;;;;;1.95;0.80;;;12.30;63.00;;;;;;5052291;28;20021;-80
2022/12/09 04:15:44;;;;;;;1.13;0.98;;;12.30;63.00;;;;;;5050887;28;20025;-79
2022/12/09 04:18:09;;;;;;;1.10;1.00;;;12.30;63.00;;;;;;5050978;28;20013;-79
2022/12/09 04:20:35;;;;;;;1.00;0.90;;;12.30;63.00;;;;;;5052092;28;20101;-79
2022/12/09 04:23:01;;;;;;;0.65;0.65;;;12.30;63.00;;;;;;5052213;28;20025;-80
2022/12/09 04:25:26;;;;;;;1.20;0.90;;;12.30;63.00;;;;;;5050769;28;20561;-77
2022/12/09 04:27:52;;;;;;;1.25;1.08;;;12.30;62.90;;;;;;5051604;28;20049;-76
2022/12/09 04:30:17;;;;;;;0.77;0.77;;;12.30;63.60;;;;;;5052109;28;20041;-76
2022/12/09 04:32:43;;;;;;;0.85;0.80;;;12.30;63.00;;;;;;5051962;28;20383;-76
2022/12/09 04:35:09;;;;;;;1.13;0.90;;;12.30;63.00;;;;;;5050713;28;20128;-76
2022/12/09 04:37:36;;;;;;;1.20;1.10;;;12.30;62.90;;;;;;5050727;28;20537;-76
2022/12/09 04:40:05;;;;;;;0.95;0.95;;;12.40;63.00;;;;;;5051903;28;20075;-76
2022/12/09 04:42:31;;;;;;;0.98;0.90;;;12.30;62.90;;;;;;5051944;28;20382;-76
2022/12/09 04:44:57;;;;;;;1.20;0.80;;;12.30;63.00;;;;;;5051870;28;20021;-77
2022/12/09 04:47:22;;;;;;;1.00;0.90;;;12.30;63.60;;;;;;5051974;28;20029;-76
2022/12/09 04:49:48;;;;;;;0.80;0.80;;;12.30;62.90;;;;;;5051756;28;20472;-77
2022/12/09 04:52:16;;;;;;;0.77;0.77;;;12.50;79.10;;;;;;5050474;28;20028;-77
2022/12/09 04:54:42;;;;;;;1.00;1.00;;;12.30;62.80;;;;;;5051792;28;20188;-76
2022/12/09 04:57:07;;;;;;;0.98;0.98;;;12.40;62.80;;;;;;5050505;28;20079;-76
2022/12/09 04:59:33;;;;;;;1.20;0.80;;;12.40;62.90;;;;;;5051738;28;20043;-76
2022/12/09 05:01:59;;;;;;;0.80;0.80;;;12.40;62.80;;;;;;5050438;28;20016;-79
2022/12/09 05:04:24;;;;;;;1.10;0.95;;;12.30;62.90;;;;;;5050526;28;20033;-77
2022/12/09 05:06:50;;;;;;;1.10;1.00;;;12.10;79.20;;;;;;5050389;28;20018;-77
2022/12/09 05:09:15;;;;;;;1.45;0.93;;;12.30;63.40;;;;;;5051795;28;20029;-77
2022/12/09 05:11:41;;;;;;;0.70;0.70;;;12.30;63.30;;;;;;5051697;28;20107;-77
2022/12/09 05:14:07;;;;;;;0.80;0.80;;;12.30;64.00;;;;;;5050556;28;20036;-77
2022/12/09 05:16:32;;;;;;;1.13;0.88;;;12.30;63.30;;;;;;5051660;28;20033;-77
2022/12/09 05:18:59;;;;;;;1.20;0.85;;;12.30;63.40;;;;;;5051560;28;20387;-77
2022/12/09 05:21:25;;;;;;;1.38;1.10;;;;;;;;;;5051566;28;20056;-79
2022/12/09 05:23:51;;;;;;;2.63;0.82;;;12.40;63.00;;;;;;5050195;28;20517;-79
2022/12/09 05:26:19;;;;;;;0.82;0.80;;;12.30;63.70;;;;;;5050022;28;20049;-80
2022/12/09 05:28:45;;;;;;;0.90;0.90;;;12.30;63.40;;;;;;5051393;28;20033;-80
2022/12/09 05:31:13;;;;;;;1.30;0.90;;;12.40;63.60;;;;;;5050129;28;20113;-79
2022/12/09 05:33:40;;;;;;;1.13;1.02;;;12.40;63.60;;;;;;5051478;28;20348;-80
2022/12/09 05:36:14;;;;;;;2.47;1.42;;;12.30;63.50;;;;;;5051393;28;20021;-80
2022/12/09 05:38:40;;;;;;;1.48;1.42;;;12.40;63.60;;;;;;5052795;28;20029;-77
2022/12/09 05:41:06;;;;;;;1.95;1.85;;;12.30;63.70;;;;;;5055126;28;20392;-79
2022/12/09 05:43:33;;;;;;;2.83;2.50;;;12.30;64.30;;;;;;5055005;28;20086;-79
2022/12/09 05:45:59;;;;;;;3.17;2.97;;;12.40;63.80;;;;;;5053585;28;20032;-80
2022/12/09 05:48:25;;;;;;;3.97;3.67;;;12.30;63.70;;;;;;5054914;28;20040;-80
2022/12/09 05:51:02;;;;;;;4.25;3.95;;;12.40;63.80;;;;;;5054888;28;20487;-80
2022/12/09 05:53:28;;;;;;;5.10;4.80;;;12.40;63.80;;;;;;5054805;28;20049;-80
2022/12/09 05:55:54;;;;;;;6.63;6.15;;;12.40;63.80;;;;;;5054686;28;20021;-80
2022/12/09 05:58:20;;;;;;;7.15;6.70;;;;;;;;;;5054818;28;20032;-80
2022/12/09 06:00:46;;;;;;;7.70;7.15;;;12.40;63.40;;;;;;5053436;28;20044;-80
2022/12/09 06:03:12;;;;;;;8.55;7.95;;;12.40;63.90;;;;;;5054592;28;20056;-80
2022/12/09 06:05:38;;;;;;;9.20;8.50;;;12.40;63.90;;;;;;5053605;28;20106;-80
2022/12/09 06:08:04;;;;;;;10.30;9.60;;;12.40;64.60;;;;;;5053243;28;20024;-80
2022/12/09 06:10:30;;;;;;;10.88;10.07;;;12.40;63.90;;;;;;5054794;28;20024;-80
2022/12/09 06:12:56;;;;;;;11.93;11.13;;;12.40;64.00;;;;;;5053103;28;20025;-80
2022/12/09 06:15:22;;;;;;;12.35;11.52;;;12.30;63.90;;;;;;5054461;28;20025;-80
2022/12/09 06:17:48;;;;;;;12.23;11.32;;;12.30;63.80;;;;;;5054458;28;20036;-80
2022/12/09 06:20:14;;;;;;;12.63;11.68;;;12.40;63.90;;;;;;5052987;28;20033;-80
2022/12/09 06:22:40;;;;;;;13.48;12.38;;;12.40;63.80;;;;;;5054474;28;20045;-80
2022/12/09 06:25:05;;;;;;;35.95;13.00;;;12.40;63.80;;;;;;5053102;28;20021;-80
2022/12/09 06:27:31;;;;;;;31.80;11.80;;;12.40;63.80;;;;;;5054249;28;20504;-80
2022/12/09 06:29:57;;;;;;;37.38;11.93;;;12.40;63.70;;;;;;5054307;28;20029;-80
2022/12/09 06:32:22;;;;;;;34.67;12.77;;;12.50;63.40;;;;;;5054164;28;20025;-80
2022/12/09 06:34:48;;;;;;;34.50;11.52;;;12.40;63.00;;;;;;5054273;28;20032;-78
2022/12/09 06:37:16;;;;;;;30.55;10.85;;;12.30;63.30;;;;;;5054542;28;20047;-84
2022/12/09 06:39:42;;;;;;;23.15;11.73;;;12.30;63.60;;;;;;5054004;28;20093;-80
2022/12/09 06:42:08;;;;;;;30.85;10.05;;;12.30;63.70;;;;;;5053964;28;20104;-80
2022/12/09 06:44:33;;;;;;;16.90;10.00;;;12.30;63.90;;;;;;5053891;28;20548;-80
2022/12/09 06:46:59;;;;;;;15.23;9.18;;;12.20;63.70;;;;;;5053703;28;20036;-80
2022/12/09 06:49:25;;;;;;;21.75;9.13;;;;;;;;;;5053620;28;20021;-81
2022/12/09 06:51:50;;;;;;;24.17;9.32;;;12.30;63.10;;;;;;5053756;28;20033;-81
2022/12/09 06:54:16;;;;;;;19.90;9.27;;;12.20;63.70;;;;;;5053518;28;20032;-77
2022/12/09 06:56:42;;;;;;;16.80;7.78;;;12.20;63.60;;;;;;5053509;28;20029;-77
2022/12/09 06:59:09;;;;;;;16.45;8.13;;;12.20;63.50;;;;;;5053548;28;20128;-77
2022/12/09 07:01:35;;;;;;;23.00;8.20;;;12.20;63.40;;;;;;5053434;28;20090;-78
2022/12/09 07:04:02;;;;;;;16.13;6.40;;;12.30;63.30;;;;;;5053478;28;20440;-77
2022/12/09 07:06:35;;;;;;;11.60;6.93;;;12.30;63.10;;;;;;5053199;28;20114;-77
2022/12/09 07:09:04;;;;;;;10.30;6.55;;;12.30;63.20;;;;;;5053404;28;20448;-78
2022/12/09 07:11:30;;;;;;;9.57;6.18;;;12.30;63.30;;;;;;5053295;28;20017;-77
2022/12/09 07:13:56;;;;;;;9.75;6.85;;;12.20;63.30;;;;;;5053460;28;20029;-77
2022/12/09 07:16:22;;;;;;;7.15;5.80;;;12.30;63.20;;;;;;5053359;28;20180;-77
2022/12/09 07:18:48;;;;;;;10.43;5.38;;;12.30;63.20;;;;;;5053305;28;20025;-77
2022/12/09 07:21:16;;;;;;;7.07;4.45;;;12.30;63.20;;;;;;5053269;28;20082;-77
2022/12/09 07:23:43;;;;;;;6.95;5.28;;;12.30;63.10;;;;;;5053301;28;20029;-77
2022/12/09 07:26:08;;;;;;;10.85;5.07;;;12.30;63.10;;;;;;5052977;28;20079;-77
2022/12/09 07:28:36;;;;;;;6.85;4.35;;;12.30;63.10;;;;;;5053405;28;20044;-77
2022/12/09 07:31:02;;;;;;;7.90;4.43;;;12.30;62.90;;;;;;5053330;28;20017;-77
2022/12/09 07:33:27;;;;;;;5.22;3.88;;;12.30;62.90;;;;;;5053166;28;20498;-77
2022/12/09 07:35:57;;;;;;;7.15;4.40;;;12.30;62.90;;;;;;5053128;28;20028;-77
2022/12/09 07:38:24;;;;;;;6.75;4.32;;;12.30;62.80;;;;;;5052987;28;20028;-77
2022/12/09 07:40:51;;;;;;;5.68;4.25;;;12.30;62.80;;;;;;5052883;28;20037;-77
2022/12/09 07:43:16;;;;;;;3.97;3.58;;;12.30;62.70;;;;;;5053009;28;20048;-77
2022/12/09 07:45:43;;;;;;;3.75;3.30;;;12.30;62.70;;;;;;5053067;28;20247;-78
2022/12/09 07:48:10;;;;;;;6.60;3.15;;;12.30;62.80;;;;;;5052988;28;20021;-78
2022/12/09 07:50:36;;;;;;;5.82;3.38;;;12.30;62.70;;;;;;5052919;28;20048;-78
2022/12/09 07:53:02;;;;;;;3.72;3.03;;;12.50;63.40;;;;;;5052708;28;20420;-78
2022/12/09 07:55:27;;;;;;;4.75;3.20;;;12.30;62.70;;;;;;5052683;28;20021;-78
2022/12/09 07:57:53;;;;;;;5.72;3.20;;;12.30;62.70;;;;;;5052762;28;20047;-78
2022/12/09 08:00:19;;;;;;;4.38;3.08;;;12.40;62.70;;;;;;5052381;28;20037;-78
2022/12/09 08:02:45;;;;;;;5.93;2.88;;;12.30;62.60;;;;;;5052175;28;20029;-78
2022/12/09 08:05:10;;;;;;;4.85;3.38;;;12.30;62.70;;;;;;5052596;28;20032;-78
2022/12/09 08:07:36;;;;;;;7.57;3.63;;;12.30;62.70;;;;;;5052604;28;20024;-79
2022/12/09 08:10:02;;;;;;;5.28;3.35;;;12.30;62.60;;;;;;5052514;28;20072;-78
2022/12/09 08:12:27;;;;;;;4.70;3.70;;;12.30;62.60;;;;;;5052504;28;20021;-77
2022/12/09 08:14:53;;;;;;;4.30;3.30;;;12.30;62.60;;;;;;5052396;28;20036;-77
2022/12/09 08:17:19;;;;;;;4.72;2.90;;;12.30;62.60;;;;;;5051164;28;20104;-77
2022/12/09 08:19:45;;;;;;;4.82;3.05;;;12.30;62.60;;;;;;5052176;28;20032;-77
2022/12/09 08:22:12;;;;;;;5.32;3.20;;;12.30;62.60;;;;;;5052363;28;20048;-78
2022/12/09 08:24:37;;;;;;;4.78;3.17;;;12.30;62.50;;;;;;5051047;28;20024;-78
2022/12/09 08:27:03;;;;;;;7.18;3.70;;;;;;;;;;5052079;28;20057;-77
2022/12/09 08:29:29;;;;;;;5.07;2.85;;;12.30;61.90;;;;;;5052356;28;20104;-78
2022/12/09 08:31:54;;;;;;;7.10;3.50;;;12.30;62.50;;;;;;5052185;28;20017;-78
2022/12/09 08:34:20;;;;;;;6.50;2.92;;;12.30;62.40;;;;;;5052178;28;20029;-78
2022/12/09 08:36:46;;;;;;;5.10;3.25;;;12.30;62.50;;;;;;5052146;28;20070;-78
2022/12/09 08:39:12;;;;;;;6.25;2.55;;;12.30;62.40;;;;;;5052055;28;20025;-78
2022/12/09 08:41:38;;;;;;;4.45;3.10;;;12.30;62.40;;;;;;5052186;28;20025;-78
2022/12/09 08:44:15;;;;;;;3.72;2.50;;;12.30;62.40;;;;;;5052347;28;20534;-78
2022/12/09 08:46:43;;;;;;;5.00;3.50;;;12.30;63.00;;;;;;5050913;28;20555;-78
2022/12/09 08:49:10;;;;;;;4.93;2.95;;;12.40;62.40;;;;;;5052200;28;20122;-78
2022/12/09 08:51:36;;;;;;;5.82;2.95;;;12.30;62.30;;;;;;5052063;28;20383;-78
2022/12/09 08:54:02;;;;;;;2.90;2.40;;;12.30;62.30;;;;;;5051946;28;20502;-78
2022/12/09 08:56:29;;;;;;;4.60;2.40;;;12.40;62.30;;;;;;5051917;28;20032;-78
2022/12/09 08:58:55;;;;;;;3.33;2.55;;;12.30;62.20;;;;;;5051661;28;20098;-78
2022/12/09 09:01:31;;;;;;;8.20;3.90;;;12.30;76.60;;;;;;5052003;28;20037;-82
2022/12/09 09:04:07;;;;;;;5.97;3.90;;;12.30;61.90;;;;;;5052008;28;20017;-78
2022/12/09 09:06:33;;;;;;;6.50;4.35;;;12.30;61.80;;;;;;5052346;28;20043;-78
2022/12/09 09:08:58;;;;;;;5.38;4.03;;;12.30;61.90;;;;;;5051831;28;20029;-78
2022/12/09 09:11:25;;;;;;;6.40;3.78;;;12.40;62.00;;;;;;5051657;28;20052;-77
2022/12/09 09:13:50;;;;;;;6.20;3.72;;;12.40;62.10;;;;;;5053715;28;20426;-77
2022/12/09 09:16:22;;;;;;;5.18;3.22;;;12.30;62.10;;;;;;5055787;28;20013;-78
2022/12/09 09:18:48;;;;;;;4.90;3.50;;;12.40;62.20;;;;;;5054171;28;20024;-77
2022/12/09 09:21:17;;;;;;;6.25;2.95;;;12.30;62.30;;;;;;5055722;28;20040;-78
2022/12/09 09:23:43;;;;;;;3.55;2.80;;;12.40;62.30;;;;;;5055541;28;20086;-78
2022/12/09 09:26:22;;;;;;;3.47;3.17;;;12.30;62.40;;;;;;5055213;28;20499;-78
2022/12/09 09:28:48;;;;;;;4.82;3.05;;;12.30;62.40;;;;;;5055245;28;20021;-79
2022/12/09 09:31:16;;;;;;;3.95;3.30;;;12.40;62.50;;;;;;5055425;28;20036;-78
2022/12/09 09:33:42;;;;;;;3.88;2.95;;;12.40;62.50;;;;;;5055301;28;20063;-79
2022/12/09 09:36:12;;;;;;;4.22;3.45;;;12.40;62.60;;;;;;5055175;28;20021;-78
2022/12/09 09:38:38;;;;;;;3.78;3.17;;;12.40;62.70;;;;;;5055536;28;20031;-78
2022/12/09 09:41:40;;;;;;;5.30;2.55;;;12.40;78.30;;;;;;5054983;28;20040;-79
2022/12/09 09:44:32;;;;;;;4.00;2.83;;;12.40;62.80;;;;;;5054999;28;20056;-78
2022/12/09 09:46:59;;;;;;;4.20;3.03;;;12.40;62.70;;;;;;5054927;28;20021;-77
2022/12/09 09:49:35;;;;;;;5.20;2.55;;;12.40;63.10;;;;;;5055108;28;20017;-78
2022/12/09 09:52:15;;;;;;;2.83;2.47;;;12.50;63.00;;;;;;5055178;28;20023;-77
2022/12/09 09:54:41;;;;;;;4.00;3.08;;;;;;;;;;5055378;28;20033;-77
2022/12/09 09:57:21;;;;;;;4.28;2.90;;;12.50;62.40;;;;;;5055068;28;20456;-78
2022/12/09 09:59:56;;;;;;;4.88;2.67;;;12.50;62.90;;;;;;5054975;28;20032;-78
2022/12/09 10:02:55;;;;;;;3.67;2.58;;;12.50;62.80;;;;;;5055226;28;20021;-77
2022/12/09 10:05:31;;;;;;;3.55;2.88;;;12.50;62.70;;;;;;5054851;28;20434;-76
2022/12/09 10:08:14;;;;;;;6.15;3.35;;;12.50;62.80;;;;;;5054781;28;20547;-77
2022/12/09 10:10:50;;;;;;;3.88;2.97;;;12.50;62.70;;;;;;5054822;28;20032;-77
2022/12/09 10:13:45;;;;;;;4.75;2.90;;;12.60;62.80;;;;;;5054640;28;20132;-77
2022/12/09 10:16:40;;;;;;;4.75;3.13;;;12.60;62.70;;;;;;5054658;28;20079;-77
2022/12/09 10:19:30;;;;;;;3.28;2.97;;;12.60;62.70;;;;;;5052195;28;20068;-77
2022/12/09 10:21:57;;;;;;;2.97;2.10;;;12.60;62.60;;;;;;5053333;28;20033;-77
2022/12/09 10:24:30;;;;;;;2.75;2.55;;;12.70;62.70;;;;;;5053805;28;20497;-77
2022/12/09 10:27:13;;;;;;;2.80;2.60;;;12.70;62.60;;;;;;5054270;28;20049;-77
2022/12/09 10:29:53;;;;;;;3.67;3.10;;;12.80;78.10;;;;;;5054426;28;20174;-76
2022/12/09 10:32:20;;;;;;;2.88;2.53;;;12.80;62.50;;;;;;5054427;28;20094;-77
2022/12/09 10:34:46;;;;;;;3.20;2.90;;;12.80;62.40;;;;;;5054309;28;20510;-77
2022/12/09 10:37:27;;;;;;;2.63;2.40;;;12.90;62.40;;;;;;5054108;28;20467;-77
2022/12/09 10:40:04;;;;;;;3.10;2.80;;;12.90;62.40;;;;;;5054146;28;20044;-77
2022/12/09 10:45:47;;;;;;;2.22;2.03;;;13.00;62.40;;;;;;5054312;28;20091;-78
2022/12/09 10:48:37;;;;;;;4.15;2.42;;;13.00;62.40;;;;;;5053890;28;20107;-78
2022/12/09 10:51:05;;;;;;;3.45;2.58;;;13.00;62.30;;;;;;5053909;28;20028;-78
2022/12/09 10:53:32;;;;;;;2.58;2.22;;;13.10;62.50;;;;;;5053652;28;20029;-78
2022/12/09 10:55:59;;;;;;;2.40;2.20;;;13.00;63.00;;;;;;5053521;28;20100;-79
2022/12/09 10:58:27;;;;;;;3.63;2.83;;;13.10;62.50;;;;;;5053356;28;20078;-79
2022/12/09 11:00:57;;;;;;;3.55;2.97;;;13.10;62.50;;;;;;5053292;28;20063;-79
2022/12/09 11:03:27;;;;;;;3.10;2.80;;;13.10;62.50;;;;;;5053369;28;20025;-78
2022/12/09 11:06:13;;;;;;;4.53;2.30;;;13.20;62.40;;;;;;5053488;28;20040;-78
2022/12/09 11:08:40;;;;;;;3.17;2.83;;;13.20;62.10;;;;;;5053450;28;20029;-79
2022/12/09 11:11:06;;;;;;;4.00;2.17;;;12.90;62.10;;;;;;5053552;28;20494;-79
2022/12/09 11:13:42;;;;;;;3.38;2.38;;;13.20;62.20;;;;;;5053296;28;20032;-79
2022/12/09 11:16:09;;;;;;;2.50;1.98;;;13.30;62.40;;;;;;5053299;28;20025;-79
2022/12/09 11:18:42;;;;;;;3.42;2.42;;;13.30;62.50;;;;;;5053126;28;20039;-80
2022/12/09 11:21:34;;;;;;;3.92;2.50;;;13.20;62.60;;;;;;5053110;28;20032;-79
2022/12/09 11:24:00;;;;;;;5.25;2.13;;;13.20;62.80;;;;;;5053288;28;20021;-79
2022/12/09 11:26:34;;;;;;;2.15;1.95;;;13.20;63.00;;;;;;5052789;28;20060;-79
2022/12/09 11:29:19;;;;;;;3.85;2.30;;;13.20;63.10;;;;;;5053095;28;20060;-77
2022/12/09 11:31:46;;;;;;;2.63;2.33;;;13.20;63.20;;;;;;5052301;28;20072;-77
2022/12/09 11:34:22;;;;;;;3.63;2.30;;;13.20;63.30;;;;;;5050578;28;20024;-76
2022/12/09 11:36:56;;;;;;;2.60;2.40;;;13.20;63.40;;;;;;5051628;28;20025;-77
2022/12/09 11:39:28;;;;;;;2.58;2.38;;;13.20;63.60;;;;;;5051463;28;20021;-77
2022/12/09 11:42:13;;;;;;;4.13;2.20;;;13.20;63.60;;;;;;5052414;28;20055;-77
2022/12/09 11:44:48;;;;;;;3.03;2.72;;;13.20;63.70;;;;;;5052967;28;20017;-77
2022/12/09 11:47:31;;;;;;;3.63;2.70;;;13.20;63.80;;;;;;5052945;28;20036;-78
2022/12/09 11:50:20;;;;;;;3.47;2.35;;;13.20;63.80;;;;;;5052849;28;20163;-77
2022/12/09 11:52:46;;;;;;;2.58;2.35;;;13.10;63.70;;;;;;5052644;28;20391;-77
2022/12/09 11:55:22;;;;;;;5.63;2.28;;;13.20;63.80;;;;;;5052675;28;20143;-78
2022/12/09 11:57:57;;;;;;;2.35;2.15;;;13.20;63.90;;;;;;5052869;28;20025;-77
2022/12/09 12:00:26;;;;;;;3.67;2.40;;;13.20;64.00;;;;;;5051293;28;20488;-77
2022/12/09 12:03:13;;;;;;;2.53;2.20;;;13.10;63.80;;;;;;5052588;28;20491;-77
2022/12/09 12:05:46;;;;;;;3.38;2.83;;;13.00;79.80;;;;;;5052588;28;20589;-80
2022/12/09 12:08:44;;;;;;;2.97;2.72;;;13.20;63.90;;;;;;5052644;28;20074;-79
2022/12/09 12:11:13;;;;;;;3.97;2.90;;;13.20;63.80;;;;;;5052563;28;20036;-80
2022/12/09 12:13:47;;;;;;;4.15;3.00;;;13.20;63.90;;;;;;5052517;28;20021;-78
2022/12/09 12:16:51;;;;;;;3.13;2.83;;;13.20;63.90;;;;;;5052465;28;20481;-79
2022/12/09 12:19:16;;;;;;;4.47;3.10;;;13.20;63.80;;;;;;5052386;28;20024;-79
2022/12/09 12:22:21;;;;;;;3.78;3.10;;;13.20;79.90;;;;;;5052202;28;20037;-79
2022/12/09 12:24:58;;;;;;;3.00;2.58;;;13.20;63.80;;;;;;5048184;28;20115;-79
2022/12/09 12:27:59;;;;;;;3.65;2.55;;;13.20;63.80;;;;;;5052030;28;20056;-79
2022/12/09 12:30:38;;;;;;;2.50;2.28;;;13.20;63.70;;;;;;5052268;28;20040;-79
2022/12/09 12:33:34;;;;;;;3.60;2.67;;;13.20;63.80;;;;;;5052222;28;20036;-79
2022/12/09 12:36:11;;;;;;;4.47;2.67;;;13.20;63.80;;;;;;5052073;28;20036;-80
2022/12/09 12:38:48;;;;;;;2.47;2.28;;;13.20;63.80;;;;;;5052079;28;20029;-80
2022/12/09 12:41:38;;;;;;;2.38;2.17;;;13.20;63.90;;;;;;5050763;28;20082;-81
2022/12/09 12:47:34;;;;;;;3.22;2.15;;;13.20;63.90;;;;;;5052821;28;20044;-80
2022/12/09 12:50:00;;;;;;;3.50;2.60;;;13.20;64.30;;;;;;5056142;28;20037;-80
2022/12/09 12:52:34;;;;;;;2.63;2.42;;;13.20;64.00;;;;;;5056091;28;20025;-80
2022/12/09 12:55:45;;;;;;;2.35;2.15;;;13.20;63.90;;;;;;5056187;28;20025;-79
2022/12/09 12:58:25;;;;;;;2.50;2.30;;;13.20;63.90;;;;;;5056330;28;20025;-80
2022/12/09 13:01:23;;;;;;;5.25;2.50;;;13.20;64.00;;;;;;5055959;28;20083;-79
2022/12/09 13:04:15;;;;;;;2.55;2.35;;;13.20;63.90;;;;;;5056201;28;20029;-80
2022/12/09 13:07:00;;;;;;;3.30;2.60;;;13.20;64.00;;;;;;5055933;28;20060;-80
2022/12/09 13:09:43;;;;;;;2.80;2.45;;;13.20;63.90;;;;;;5055972;28;20059;-80
2022/12/09 13:12:52;;;;;;;2.65;2.42;;;13.20;63.90;;;;;;5056002;28;20104;-80